sensor_id;sensor_type;location;lat;lon;timestamp;P1;durP1;ratioP1;P2;durP2;ratioP2
69386;SDS011;56575;48.942;8.404;2023-02-05T00:00:47;30.03;;;10.63;;
69386;SDS011;56575;48.942;8.404;2023-02-05T00:03:12;22.93;;;8.70;;
69386;SDS011;56575;48.942;8.404;2023-02-05T00:05:37;18.10;;;6.10;;
69386;SDS011;56575;48.942;8.404;2023-02-05T00:08:02;16.23;;;5.53;;
69386;SDS011;56575;48.942;8.404;2023-02-05T00:10:28;17.33;;;5.77;;
69386;SDS011;56575;48.942;8.404;2023-02-05T00:12:53;13.60;;;4.60;;
69386;SDS011;56575;48.942;8.404;2023-02-05T00:15:18;13.00;;;4.43;;
69386;SDS011;56575;48.942;8.404;2023-02-05T00:17:43;10.67;;;4.17;;
69386;SDS011;56575;48.942;8.404;2023-02-05T00:20:09;10.67;;;4.10;;
69386;SDS011;56575;48.942;8.404;2023-02-05T00:22:34;12.18;;;4.40;;
69386;SDS011;56575;48.942;8.404;2023-02-05T00:24:59;14.97;;;5.03;;
69386;SDS011;56575;48.942;8.404;2023-02-05T00:27:25;10.20;;;3.50;;
69386;SDS011;56575;48.942;8.404;2023-02-05T00:29:50;8.70;;;3.57;;
69386;SDS011;56575;48.942;8.404;2023-02-05T00:32:15;11.73;;;3.60;;
69386;SDS011;56575;48.942;8.404;2023-02-05T00:34:40;12.67;;;3.53;;
69386;SDS011;56575;48.942;8.404;2023-02-05T00:37:06;13.00;;;4.17;;
69386;SDS011;56575;48.942;8.404;2023-02-05T00:39:31;9.17;;;3.47;;
69386;SDS011;56575;48.942;8.404;2023-02-05T00:41:56;12.17;;;3.53;;
69386;SDS011;56575;48.942;8.404;2023-02-05T00:44:21;11.57;;;3.63;;
69386;SDS011;56575;48.942;8.404;2023-02-05T00:46:46;10.63;;;3.70;;
69386;SDS011;56575;48.942;8.404;2023-02-05T00:49:12;10.27;;;3.90;;
69386;SDS011;56575;48.942;8.404;2023-02-05T00:51:37;9.23;;;3.80;;
69386;SDS011;56575;48.942;8.404;2023-02-05T00:54:02;11.97;;;4.10;;
69386;SDS011;56575;48.942;8.404;2023-02-05T00:56:27;11.07;;;3.63;;
69386;SDS011;56575;48.942;8.404;2023-02-05T00:58:52;10.30;;;3.97;;
69386;SDS011;56575;48.942;8.404;2023-02-05T01:01:18;11.17;;;3.77;;
69386;SDS011;56575;48.942;8.404;2023-02-05T01:03:43;7.80;;;3.80;;
69386;SDS011;56575;48.942;8.404;2023-02-05T01:06:08;10.90;;;3.90;;
69386;SDS011;56575;48.942;8.404;2023-02-05T01:08:33;13.27;;;4.33;;
69386;SDS011;56575;48.942;8.404;2023-02-05T01:10:59;12.63;;;4.43;;
69386;SDS011;56575;48.942;8.404;2023-02-05T01:13:25;9.98;;;3.95;;
69386;SDS011;56575;48.942;8.404;2023-02-05T01:15:50;11.10;;;4.50;;
69386;SDS011;56575;48.942;8.404;2023-02-05T01:18:15;11.33;;;4.07;;
69386;SDS011;56575;48.942;8.404;2023-02-05T01:20:41;10.33;;;3.70;;
69386;SDS011;56575;48.942;8.404;2023-02-05T01:23:07;12.02;;;4.00;;
69386;SDS011;56575;48.942;8.404;2023-02-05T01:25:32;11.03;;;4.07;;
69386;SDS011;56575;48.942;8.404;2023-02-05T01:27:57;10.63;;;3.67;;
69386;SDS011;56575;48.942;8.404;2023-02-05T01:30:22;9.43;;;3.70;;
69386;SDS011;56575;48.942;8.404;2023-02-05T01:32:48;11.50;;;4.40;;
69386;SDS011;56575;48.942;8.404;2023-02-05T01:35:13;10.63;;;3.67;;
69386;SDS011;56575;48.942;8.404;2023-02-05T01:37:38;8.60;;;4.00;;
69386;SDS011;56575;48.942;8.404;2023-02-05T01:40:03;9.53;;;3.47;;
69386;SDS011;56575;48.942;8.404;2023-02-05T01:42:29;10.93;;;3.88;;
69386;SDS011;56575;48.942;8.404;2023-02-05T01:47:39;12.10;;;4.10;;
69386;SDS011;56575;48.942;8.404;2023-02-05T01:50:05;9.73;;;3.80;;
69386;SDS011;56575;48.942;8.404;2023-02-05T01:52:30;12.67;;;3.70;;
69386;SDS011;56575;48.942;8.404;2023-02-05T01:54:55;10.25;;;3.60;;
69386;SDS011;56575;48.942;8.404;2023-02-05T01:57:21;11.77;;;3.53;;
69386;SDS011;56575;48.942;8.404;2023-02-05T01:59:47;10.68;;;3.67;;
69386;SDS011;56575;48.942;8.404;2023-02-05T02:02:13;11.50;;;4.27;;
69386;SDS011;56575;48.942;8.404;2023-02-05T02:04:41;9.53;;;3.80;;
69386;SDS011;56575;48.942;8.404;2023-02-05T02:07:08;9.88;;;3.70;;
69386;SDS011;56575;48.942;8.404;2023-02-05T02:09:33;11.45;;;3.72;;
69386;SDS011;56575;48.942;8.404;2023-02-05T02:11:59;10.05;;;4.28;;
69386;SDS011;56575;48.942;8.404;2023-02-05T02:14:25;13.37;;;3.70;;
69386;SDS011;56575;48.942;8.404;2023-02-05T02:16:50;10.43;;;3.60;;
69386;SDS011;56575;48.942;8.404;2023-02-05T02:20:04;8.95;;;3.10;;
69386;SDS011;56575;48.942;8.404;2023-02-05T02:22:07;9.95;;;3.30;;
69386;SDS011;56575;48.942;8.404;2023-02-05T02:32:20;7.60;;;3.30;;
69386;SDS011;56575;48.942;8.404;2023-02-05T02:34:48;8.60;;;3.38;;
69386;SDS011;56575;48.942;8.404;2023-02-05T02:37:21;12.93;;;3.13;;
69386;SDS011;56575;48.942;8.404;2023-02-05T02:39:52;10.25;;;3.10;;
69386;SDS011;56575;48.942;8.404;2023-02-05T02:42:40;9.43;;;3.28;;
69386;SDS011;56575;48.942;8.404;2023-02-05T02:45:06;8.93;;;3.10;;
69386;SDS011;56575;48.942;8.404;2023-02-05T02:47:43;10.90;;;3.15;;
69386;SDS011;56575;48.942;8.404;2023-02-05T02:50:15;9.27;;;3.15;;
69386;SDS011;56575;48.942;8.404;2023-02-05T02:52:42;10.73;;;3.13;;
69386;SDS011;56575;48.942;8.404;2023-02-05T02:55:09;9.93;;;3.35;;
69386;SDS011;56575;48.942;8.404;2023-02-05T02:57:35;7.57;;;2.93;;
69386;SDS011;56575;48.942;8.404;2023-02-05T03:00:03;9.57;;;2.80;;
69386;SDS011;56575;48.942;8.404;2023-02-05T03:02:29;8.27;;;2.80;;
69386;SDS011;56575;48.942;8.404;2023-02-05T03:04:57;9.98;;;3.45;;
69386;SDS011;56575;48.942;8.404;2023-02-05T03:07:26;8.18;;;2.88;;
69386;SDS011;56575;48.942;8.404;2023-02-05T03:12:20;6.97;;;3.00;;
69386;SDS011;56575;48.942;8.404;2023-02-05T03:14:46;9.47;;;3.10;;
69386;SDS011;56575;48.942;8.404;2023-02-05T03:17:11;8.80;;;3.20;;
69386;SDS011;56575;48.942;8.404;2023-02-05T03:19:43;8.27;;;3.10;;
69386;SDS011;56575;48.942;8.404;2023-02-05T03:22:08;9.95;;;3.15;;
69386;SDS011;56575;48.942;8.404;2023-02-05T03:24:33;7.70;;;3.30;;
69386;SDS011;56575;48.942;8.404;2023-02-05T03:26:58;9.27;;;3.40;;
69386;SDS011;56575;48.942;8.404;2023-02-05T03:29:25;7.43;;;2.93;;
69386;SDS011;56575;48.942;8.404;2023-02-05T03:34:46;9.50;;;2.67;;
69386;SDS011;56575;48.942;8.404;2023-02-05T03:37:17;7.28;;;2.72;;
69386;SDS011;56575;48.942;8.404;2023-02-05T03:52:46;8.90;;;3.30;;
69386;SDS011;56575;48.942;8.404;2023-02-05T03:55:20;9.88;;;3.22;;
69386;SDS011;56575;48.942;8.404;2023-02-05T04:00:31;9.25;;;3.00;;
69386;SDS011;56575;48.942;8.404;2023-02-05T04:02:57;6.10;;;3.10;;
69386;SDS011;56575;48.942;8.404;2023-02-05T04:05:22;10.40;;;3.50;;
69386;SDS011;56575;48.942;8.404;2023-02-05T04:07:49;6.17;;;2.93;;
69386;SDS011;56575;48.942;8.404;2023-02-05T04:10:14;7.80;;;2.53;;
69386;SDS011;56575;48.942;8.404;2023-02-05T04:12:40;10.55;;;2.90;;
69386;SDS011;56575;48.942;8.404;2023-02-05T04:15:05;10.13;;;2.63;;
69386;SDS011;56575;48.942;8.404;2023-02-05T04:17:32;7.72;;;2.83;;
69386;SDS011;56575;48.942;8.404;2023-02-05T04:19:58;78.67;;;32.13;;
69386;SDS011;56575;48.942;8.404;2023-02-05T04:22:23;32.13;;;13.63;;
69386;SDS011;56575;48.942;8.404;2023-02-05T04:24:48;15.57;;;12.37;;
69386;SDS011;56575;48.942;8.404;2023-02-05T04:27:13;26.07;;;15.53;;
69386;SDS011;56575;48.942;8.404;2023-02-05T04:29:39;20.73;;;11.30;;
69386;SDS011;56575;48.942;8.404;2023-02-05T04:32:04;12.77;;;5.90;;
69386;SDS011;56575;48.942;8.404;2023-02-05T04:34:29;8.43;;;4.47;;
69386;SDS011;56575;48.942;8.404;2023-02-05T04:36:54;13.80;;;5.70;;
69386;SDS011;56575;48.942;8.404;2023-02-05T04:39:19;15.30;;;4.77;;
69386;SDS011;56575;48.942;8.404;2023-02-05T04:41:45;7.27;;;3.33;;
69386;SDS011;56575;48.942;8.404;2023-02-05T04:44:10;8.87;;;3.07;;
69386;SDS011;56575;48.942;8.404;2023-02-05T04:46:35;6.10;;;2.93;;
69386;SDS011;56575;48.942;8.404;2023-02-05T04:49:00;9.07;;;2.97;;
69386;SDS011;56575;48.942;8.404;2023-02-05T04:51:25;6.13;;;2.70;;
69386;SDS011;56575;48.942;8.404;2023-02-05T04:53:51;6.67;;;2.83;;
69386;SDS011;56575;48.942;8.404;2023-02-05T04:56:16;8.50;;;2.70;;
69386;SDS011;56575;48.942;8.404;2023-02-05T04:58:42;8.90;;;3.57;;
69386;SDS011;56575;48.942;8.404;2023-02-05T05:01:11;10.57;;;3.40;;
69386;SDS011;56575;48.942;8.404;2023-02-05T05:03:37;10.57;;;3.30;;
69386;SDS011;56575;48.942;8.404;2023-02-05T05:06:03;10.17;;;3.80;;
69386;SDS011;56575;48.942;8.404;2023-02-05T05:08:28;10.45;;;4.03;;
69386;SDS011;56575;48.942;8.404;2023-02-05T05:10:53;29.60;;;10.63;;
69386;SDS011;56575;48.942;8.404;2023-02-05T05:13:19;10.53;;;4.40;;
69386;SDS011;56575;48.942;8.404;2023-02-05T05:15:44;9.87;;;4.00;;
69386;SDS011;56575;48.942;8.404;2023-02-05T05:18:09;14.27;;;3.97;;
69386;SDS011;56575;48.942;8.404;2023-02-05T05:20:34;16.87;;;11.63;;
69386;SDS011;56575;48.942;8.404;2023-02-05T05:23:00;23.40;;;12.70;;
69386;SDS011;56575;48.942;8.404;2023-02-05T05:25:25;20.00;;;10.82;;
69386;SDS011;56575;48.942;8.404;2023-02-05T05:27:50;9.40;;;5.00;;
69386;SDS011;56575;48.942;8.404;2023-02-05T05:30:15;10.20;;;6.30;;
69386;SDS011;56575;48.942;8.404;2023-02-05T05:32:41;15.97;;;9.17;;
69386;SDS011;56575;48.942;8.404;2023-02-05T05:35:06;25.47;;;17.77;;
69386;SDS011;56575;48.942;8.404;2023-02-05T05:37:31;15.17;;;8.10;;
69386;SDS011;56575;48.942;8.404;2023-02-05T05:39:56;10.93;;;4.90;;
69386;SDS011;56575;48.942;8.404;2023-02-05T05:42:40;14.25;;;6.60;;
69386;SDS011;56575;48.942;8.404;2023-02-05T05:45:24;8.98;;;5.07;;
69386;SDS011;56575;48.942;8.404;2023-02-05T05:47:49;16.07;;;6.00;;
69386;SDS011;56575;48.942;8.404;2023-02-05T05:50:14;13.20;;;5.50;;
69386;SDS011;56575;48.942;8.404;2023-02-05T05:52:40;8.37;;;3.70;;
69386;SDS011;56575;48.942;8.404;2023-02-05T05:55:05;8.47;;;3.50;;
69386;SDS011;56575;48.942;8.404;2023-02-05T05:57:30;9.63;;;3.53;;
69386;SDS011;56575;48.942;8.404;2023-02-05T05:59:55;7.00;;;2.80;;
69386;SDS011;56575;48.942;8.404;2023-02-05T06:02:21;6.77;;;3.13;;
69386;SDS011;56575;48.942;8.404;2023-02-05T06:04:46;7.57;;;3.17;;
69386;SDS011;56575;48.942;8.404;2023-02-05T06:07:11;11.73;;;3.20;;
69386;SDS011;56575;48.942;8.404;2023-02-05T06:09:36;10.07;;;3.27;;
69386;SDS011;56575;48.942;8.404;2023-02-05T06:12:02;11.27;;;3.23;;
69386;SDS011;56575;48.942;8.404;2023-02-05T06:14:27;9.90;;;3.67;;
69386;SDS011;56575;48.942;8.404;2023-02-05T06:16:52;8.90;;;3.20;;
69386;SDS011;56575;48.942;8.404;2023-02-05T06:19:19;9.43;;;3.17;;
69386;SDS011;56575;48.942;8.404;2023-02-05T06:21:44;10.90;;;3.20;;
69386;SDS011;56575;48.942;8.404;2023-02-05T06:24:10;10.97;;;3.23;;
69386;SDS011;56575;48.942;8.404;2023-02-05T06:26:35;8.67;;;3.53;;
69386;SDS011;56575;48.942;8.404;2023-02-05T06:29:00;10.23;;;3.40;;
69386;SDS011;56575;48.942;8.404;2023-02-05T06:31:29;10.95;;;4.85;;
69386;SDS011;56575;48.942;8.404;2023-02-05T06:33:54;9.50;;;4.38;;
69386;SDS011;56575;48.942;8.404;2023-02-05T06:36:19;11.23;;;4.53;;
69386;SDS011;56575;48.942;8.404;2023-02-05T06:38:44;14.27;;;5.27;;
69386;SDS011;56575;48.942;8.404;2023-02-05T06:41:10;12.53;;;5.10;;
69386;SDS011;56575;48.942;8.404;2023-02-05T06:43:35;13.90;;;4.60;;
69386;SDS011;56575;48.942;8.404;2023-02-05T06:46:00;9.07;;;4.90;;
69386;SDS011;56575;48.942;8.404;2023-02-05T06:48:25;11.23;;;6.10;;
69386;SDS011;56575;48.942;8.404;2023-02-05T06:50:50;16.63;;;7.50;;
69386;SDS011;56575;48.942;8.404;2023-02-05T06:53:16;15.43;;;7.90;;
69386;SDS011;56575;48.942;8.404;2023-02-05T06:55:41;13.20;;;5.77;;
69386;SDS011;56575;48.942;8.404;2023-02-05T06:58:06;15.57;;;6.90;;
69386;SDS011;56575;48.942;8.404;2023-02-05T07:00:32;13.40;;;6.17;;
69386;SDS011;56575;48.942;8.404;2023-02-05T07:02:57;14.55;;;6.65;;
69386;SDS011;56575;48.942;8.404;2023-02-05T07:05:22;14.83;;;6.90;;
69386;SDS011;56575;48.942;8.404;2023-02-05T07:07:47;17.53;;;7.00;;
69386;SDS011;56575;48.942;8.404;2023-02-05T07:10:13;18.23;;;6.33;;
69386;SDS011;56575;48.942;8.404;2023-02-05T07:12:38;17.60;;;6.00;;
69386;SDS011;56575;48.942;8.404;2023-02-05T07:15:03;18.00;;;7.70;;
69386;SDS011;56575;48.942;8.404;2023-02-05T07:17:28;15.33;;;6.73;;
69386;SDS011;56575;48.942;8.404;2023-02-05T07:19:53;18.80;;;8.77;;
69386;SDS011;56575;48.942;8.404;2023-02-05T07:22:19;13.73;;;7.30;;
69386;SDS011;56575;48.942;8.404;2023-02-05T07:24:44;16.17;;;8.03;;
69386;SDS011;56575;48.942;8.404;2023-02-05T07:27:09;19.60;;;8.40;;
69386;SDS011;56575;48.942;8.404;2023-02-05T07:29:34;19.10;;;9.13;;
69386;SDS011;56575;48.942;8.404;2023-02-05T07:32:00;18.03;;;10.47;;
69386;SDS011;56575;48.942;8.404;2023-02-05T07:34:25;24.57;;;11.67;;
69386;SDS011;56575;48.942;8.404;2023-02-05T07:36:51;24.27;;;11.67;;
69386;SDS011;56575;48.942;8.404;2023-02-05T07:39:16;23.48;;;10.45;;
69386;SDS011;56575;48.942;8.404;2023-02-05T07:41:41;21.83;;;9.57;;
69386;SDS011;56575;48.942;8.404;2023-02-05T07:44:07;25.73;;;9.87;;
69386;SDS011;56575;48.942;8.404;2023-02-05T07:46:32;22.37;;;8.90;;
69386;SDS011;56575;48.942;8.404;2023-02-05T07:48:57;17.87;;;7.70;;
69386;SDS011;56575;48.942;8.404;2023-02-05T07:51:22;22.83;;;7.07;;
69386;SDS011;56575;48.942;8.404;2023-02-05T07:53:48;18.13;;;6.68;;
69386;SDS011;56575;48.942;8.404;2023-02-05T07:56:13;17.40;;;6.60;;
69386;SDS011;56575;48.942;8.404;2023-02-05T07:58:39;16.02;;;6.13;;
69386;SDS011;56575;48.942;8.404;2023-02-05T08:01:05;20.07;;;8.27;;
69386;SDS011;56575;48.942;8.404;2023-02-05T08:03:30;16.45;;;6.70;;
69386;SDS011;56575;48.942;8.404;2023-02-05T08:05:56;19.40;;;6.43;;
69386;SDS011;56575;48.942;8.404;2023-02-05T08:08:21;16.87;;;6.03;;
69386;SDS011;56575;48.942;8.404;2023-02-05T08:10:47;15.73;;;5.93;;
69386;SDS011;56575;48.942;8.404;2023-02-05T08:13:12;16.83;;;6.67;;
69386;SDS011;56575;48.942;8.404;2023-02-05T08:15:38;14.37;;;6.00;;
69386;SDS011;56575;48.942;8.404;2023-02-05T08:18:03;21.50;;;6.87;;
69386;SDS011;56575;48.942;8.404;2023-02-05T08:20:28;18.60;;;6.37;;
69386;SDS011;56575;48.942;8.404;2023-02-05T08:22:54;16.93;;;6.47;;
69386;SDS011;56575;48.942;8.404;2023-02-05T08:25:19;16.40;;;6.20;;
69386;SDS011;56575;48.942;8.404;2023-02-05T08:27:44;17.13;;;6.33;;
69386;SDS011;56575;48.942;8.404;2023-02-05T08:30:11;15.97;;;6.33;;
69386;SDS011;56575;48.942;8.404;2023-02-05T08:32:37;19.60;;;8.40;;
69386;SDS011;56575;48.942;8.404;2023-02-05T08:35:03;17.07;;;6.73;;
69386;SDS011;56575;48.942;8.404;2023-02-05T08:37:28;17.53;;;6.83;;
69386;SDS011;56575;48.942;8.404;2023-02-05T08:39:53;13.77;;;6.10;;
69386;SDS011;56575;48.942;8.404;2023-02-05T08:42:18;14.40;;;7.17;;
69386;SDS011;56575;48.942;8.404;2023-02-05T08:44:44;16.77;;;6.33;;
69386;SDS011;56575;48.942;8.404;2023-02-05T08:47:12;18.35;;;6.28;;
69386;SDS011;56575;48.942;8.404;2023-02-05T08:49:37;13.50;;;5.60;;
69386;SDS011;56575;48.942;8.404;2023-02-05T08:52:02;19.73;;;6.60;;
69386;SDS011;56575;48.942;8.404;2023-02-05T08:54:27;14.73;;;5.43;;
69386;SDS011;56575;48.942;8.404;2023-02-05T08:56:53;17.87;;;6.63;;
69386;SDS011;56575;48.942;8.404;2023-02-05T08:59:18;12.80;;;4.80;;
69386;SDS011;56575;48.942;8.404;2023-02-05T09:01:44;15.00;;;5.13;;
69386;SDS011;56575;48.942;8.404;2023-02-05T09:04:13;14.73;;;4.75;;
69386;SDS011;56575;48.942;8.404;2023-02-05T09:06:38;12.90;;;5.03;;
69386;SDS011;56575;48.942;8.404;2023-02-05T09:09:04;18.17;;;4.93;;
69386;SDS011;56575;48.942;8.404;2023-02-05T09:11:29;14.43;;;4.90;;
69386;SDS011;56575;48.942;8.404;2023-02-05T09:13:58;17.10;;;6.27;;
69386;SDS011;56575;48.942;8.404;2023-02-05T09:16:23;18.17;;;5.00;;
69386;SDS011;56575;48.942;8.404;2023-02-05T09:18:49;13.17;;;5.80;;
69386;SDS011;56575;48.942;8.404;2023-02-05T09:21:14;41.23;;;17.70;;
69386;SDS011;56575;48.942;8.404;2023-02-05T09:23:39;23.43;;;9.60;;
69386;SDS011;56575;48.942;8.404;2023-02-05T09:26:04;21.37;;;8.03;;
69386;SDS011;56575;48.942;8.404;2023-02-05T09:28:30;18.30;;;6.47;;
69386;SDS011;56575;48.942;8.404;2023-02-05T09:30:56;14.75;;;6.53;;
69386;SDS011;56575;48.942;8.404;2023-02-05T09:33:21;17.63;;;6.10;;
69386;SDS011;56575;48.942;8.404;2023-02-05T09:35:46;16.87;;;6.57;;
69386;SDS011;56575;48.942;8.404;2023-02-05T09:38:12;14.27;;;4.83;;
69386;SDS011;56575;48.942;8.404;2023-02-05T09:40:49;15.90;;;5.20;;
69386;SDS011;56575;48.942;8.404;2023-02-05T09:50:58;11.98;;;5.63;;
69386;SDS011;56575;48.942;8.404;2023-02-05T09:53:24;18.77;;;5.60;;
69386;SDS011;56575;48.942;8.404;2023-02-05T09:55:51;17.38;;;5.90;;
69386;SDS011;56575;48.942;8.404;2023-02-05T09:58:18;13.32;;;5.63;;
69386;SDS011;56575;48.942;8.404;2023-02-05T10:00:46;14.88;;;5.20;;
69386;SDS011;56575;48.942;8.404;2023-02-05T10:03:18;16.73;;;5.13;;
69386;SDS011;56575;48.942;8.404;2023-02-05T10:08:17;15.38;;;5.28;;
69386;SDS011;56575;48.942;8.404;2023-02-05T10:10:47;16.15;;;6.25;;
69386;SDS011;56575;48.942;8.404;2023-02-05T10:13:24;17.23;;;7.82;;
69386;SDS011;56575;48.942;8.404;2023-02-05T10:21:03;17.55;;;7.43;;
69386;SDS011;56575;48.942;8.404;2023-02-05T10:26:10;21.77;;;7.35;;
69386;SDS011;56575;48.942;8.404;2023-02-05T10:35:58;18.52;;;5.95;;
69386;SDS011;56575;48.942;8.404;2023-02-05T10:38:25;13.18;;;5.65;;
69386;SDS011;56575;48.942;8.404;2023-02-05T10:40:54;17.30;;;5.40;;
69386;SDS011;56575;48.942;8.404;2023-02-05T10:46:09;17.92;;;6.43;;
69386;SDS011;56575;48.942;8.404;2023-02-05T10:48:44;15.52;;;6.25;;
69386;SDS011;56575;48.942;8.404;2023-02-05T10:51:11;16.60;;;6.38;;
69386;SDS011;56575;48.942;8.404;2023-02-05T10:53:38;15.85;;;6.40;;
69386;SDS011;56575;48.942;8.404;2023-02-05T10:56:04;18.87;;;7.03;;
69386;SDS011;56575;48.942;8.404;2023-02-05T10:58:42;19.57;;;7.63;;
69386;SDS011;56575;48.942;8.404;2023-02-05T11:06:13;17.30;;;6.60;;
69386;SDS011;56575;48.942;8.404;2023-02-05T11:08:41;16.83;;;6.67;;
69386;SDS011;56575;48.942;8.404;2023-02-05T11:11:30;17.88;;;6.82;;
69386;SDS011;56575;48.942;8.404;2023-02-05T11:13:57;20.70;;;6.93;;
69386;SDS011;56575;48.942;8.404;2023-02-05T11:16:23;13.63;;;5.97;;
69386;SDS011;56575;48.942;8.404;2023-02-05T11:18:56;13.90;;;5.95;;
69386;SDS011;56575;48.942;8.404;2023-02-05T11:21:22;18.90;;;5.85;;
69386;SDS011;56575;48.942;8.404;2023-02-05T11:23:54;16.90;;;6.47;;
69386;SDS011;56575;48.942;8.404;2023-02-05T11:26:22;61.17;;;25.33;;
69386;SDS011;56575;48.942;8.404;2023-02-05T11:28:47;17.60;;;5.80;;
69386;SDS011;56575;48.942;8.404;2023-02-05T11:31:26;18.83;;;5.57;;
69386;SDS011;56575;48.942;8.404;2023-02-05T11:36:32;14.82;;;5.72;;
69386;SDS011;56575;48.942;8.404;2023-02-05T11:38:57;16.97;;;5.90;;
69386;SDS011;56575;48.942;8.404;2023-02-05T11:41:27;16.20;;;5.73;;
69386;SDS011;56575;48.942;8.404;2023-02-05T11:43:53;16.15;;;5.63;;
69386;SDS011;56575;48.942;8.404;2023-02-05T11:46:19;17.42;;;6.40;;
69386;SDS011;56575;48.942;8.404;2023-02-05T11:51:13;15.30;;;5.33;;
69386;SDS011;56575;48.942;8.404;2023-02-05T11:53:53;17.02;;;5.80;;
69386;SDS011;56575;48.942;8.404;2023-02-05T11:56:20;14.95;;;5.65;;
69386;SDS011;56575;48.942;8.404;2023-02-05T11:58:56;15.88;;;6.03;;
69386;SDS011;56575;48.942;8.404;2023-02-05T12:01:22;17.15;;;5.63;;
69386;SDS011;56575;48.942;8.404;2023-02-05T12:03:58;16.70;;;5.73;;
69386;SDS011;56575;48.942;8.404;2023-02-05T12:06:25;13.02;;;5.55;;
69386;SDS011;56575;48.942;8.404;2023-02-05T12:08:53;18.92;;;7.00;;
69386;SDS011;56575;48.942;8.404;2023-02-05T12:12:02;17.77;;;6.07;;
69386;SDS011;56575;48.942;8.404;2023-02-05T12:19:52;15.75;;;6.18;;
69386;SDS011;56575;48.942;8.404;2023-02-05T12:35:22;22.80;;;8.10;;
69386;SDS011;56575;48.942;8.404;2023-02-05T12:40:29;27.40;;;9.13;;
69386;SDS011;56575;48.942;8.404;2023-02-05T12:43:02;23.40;;;9.07;;
69386;SDS011;56575;48.942;8.404;2023-02-05T12:50:52;21.33;;;8.70;;
69386;SDS011;56575;48.942;8.404;2023-02-05T12:53:32;27.30;;;8.97;;
69386;SDS011;56575;48.942;8.404;2023-02-05T12:56:15;30.83;;;9.63;;
69386;SDS011;56575;48.942;8.404;2023-02-05T12:58:44;30.92;;;10.65;;
69386;SDS011;56575;48.942;8.404;2023-02-05T13:01:13;32.55;;;10.48;;
69386;SDS011;56575;48.942;8.404;2023-02-05T13:08:48;32.07;;;12.20;;
69386;SDS011;56575;48.942;8.404;2023-02-05T13:11:16;35.53;;;12.60;;
69386;SDS011;56575;48.942;8.404;2023-02-05T13:16:48;34.65;;;12.25;;
69386;SDS011;56575;48.942;8.404;2023-02-05T13:21:58;35.70;;;15.23;;
69386;SDS011;56575;48.942;8.404;2023-02-05T13:27:31;32.47;;;12.45;;
69386;SDS011;56575;48.942;8.404;2023-02-05T13:30:18;33.80;;;11.98;;
69386;SDS011;56575;48.942;8.404;2023-02-05T13:32:45;39.15;;;13.48;;
69386;SDS011;56575;48.942;8.404;2023-02-05T13:35:11;30.40;;;12.50;;
69386;SDS011;56575;48.942;8.404;2023-02-05T13:37:41;39.72;;;13.32;;
69386;SDS011;56575;48.942;8.404;2023-02-05T13:47:37;35.72;;;13.23;;
69386;SDS011;56575;48.942;8.404;2023-02-05T13:52:34;34.27;;;13.77;;
69386;SDS011;56575;48.942;8.404;2023-02-05T13:55:13;35.72;;;13.25;;
69386;SDS011;56575;48.942;8.404;2023-02-05T14:00:24;35.97;;;12.87;;
69386;SDS011;56575;48.942;8.404;2023-02-05T14:02:53;34.15;;;13.82;;
69386;SDS011;56575;48.942;8.404;2023-02-05T14:05:28;38.10;;;13.55;;
69386;SDS011;56575;48.942;8.404;2023-02-05T14:07:54;37.10;;;13.55;;
69386;SDS011;56575;48.942;8.404;2023-02-05T14:12:51;35.53;;;14.20;;
69386;SDS011;56575;48.942;8.404;2023-02-05T14:21:07;42.60;;;17.57;;
69386;SDS011;56575;48.942;8.404;2023-02-05T14:23:02;45.22;;;18.65;;
69386;SDS011;56575;48.942;8.404;2023-02-05T14:28:00;38.60;;;17.13;;
69386;SDS011;56575;48.942;8.404;2023-02-05T14:32:54;33.63;;;13.10;;
69386;SDS011;56575;48.942;8.404;2023-02-05T14:37:52;35.37;;;14.13;;
69386;SDS011;56575;48.942;8.404;2023-02-05T14:40:29;37.28;;;14.45;;
69386;SDS011;56575;48.942;8.404;2023-02-05T14:42:56;31.85;;;13.32;;
69386;SDS011;56575;48.942;8.404;2023-02-05T14:45:22;30.15;;;12.98;;
69386;SDS011;56575;48.942;8.404;2023-02-05T14:47:48;34.47;;;14.18;;
69386;SDS011;56575;48.942;8.404;2023-02-05T14:50:24;32.53;;;14.07;;
69386;SDS011;56575;48.942;8.404;2023-02-05T14:53:01;32.63;;;13.73;;
69386;SDS011;56575;48.942;8.404;2023-02-05T14:55:27;34.05;;;14.32;;
69386;SDS011;56575;48.942;8.404;2023-02-05T15:00:34;37.10;;;15.07;;
69386;SDS011;56575;48.942;8.404;2023-02-05T15:05:40;35.80;;;14.83;;
69386;SDS011;56575;48.942;8.404;2023-02-05T15:10:44;35.43;;;15.40;;
69386;SDS011;56575;48.942;8.404;2023-02-05T15:13:17;37.13;;;16.15;;
69386;SDS011;56575;48.942;8.404;2023-02-05T15:16:28;36.40;;;15.25;;
69386;SDS011;56575;48.942;8.404;2023-02-05T15:18:29;36.17;;;15.90;;
69386;SDS011;56575;48.942;8.404;2023-02-05T15:20:56;34.60;;;15.60;;
69386;SDS011;56575;48.942;8.404;2023-02-05T15:23:30;39.83;;;19.05;;
69386;SDS011;56575;48.942;8.404;2023-02-05T15:26:06;36.72;;;16.23;;
69386;SDS011;56575;48.942;8.404;2023-02-05T15:28:38;34.80;;;15.70;;
69386;SDS011;56575;48.942;8.404;2023-02-05T15:31:08;37.08;;;16.80;;
69386;SDS011;56575;48.942;8.404;2023-02-05T15:33:48;33.38;;;15.48;;
69386;SDS011;56575;48.942;8.404;2023-02-05T15:36:20;35.83;;;15.85;;
69386;SDS011;56575;48.942;8.404;2023-02-05T15:38:57;34.38;;;14.70;;
69386;SDS011;56575;48.942;8.404;2023-02-05T15:41:26;35.17;;;14.10;;
69386;SDS011;56575;48.942;8.404;2023-02-05T15:43:57;35.58;;;15.18;;
69386;SDS011;56575;48.942;8.404;2023-02-05T15:46:23;35.50;;;15.20;;
69386;SDS011;56575;48.942;8.404;2023-02-05T15:48:48;34.10;;;14.53;;
69386;SDS011;56575;48.942;8.404;2023-02-05T15:51:21;32.20;;;14.52;;
69386;SDS011;56575;48.942;8.404;2023-02-05T15:53:47;35.95;;;14.20;;
69386;SDS011;56575;48.942;8.404;2023-02-05T15:56:15;31.17;;;13.50;;
69386;SDS011;56575;48.942;8.404;2023-02-05T15:58:49;31.63;;;13.40;;
69386;SDS011;56575;48.942;8.404;2023-02-05T16:01:28;32.35;;;14.07;;
69386;SDS011;56575;48.942;8.404;2023-02-05T16:03:54;37.72;;;14.35;;
69386;SDS011;56575;48.942;8.404;2023-02-05T16:06:20;37.67;;;15.30;;
69386;SDS011;56575;48.942;8.404;2023-02-05T16:08:46;36.72;;;16.73;;
69386;SDS011;56575;48.942;8.404;2023-02-05T16:11:11;33.17;;;16.37;;
69386;SDS011;56575;48.942;8.404;2023-02-05T16:13:39;34.73;;;15.33;;
69386;SDS011;56575;48.942;8.404;2023-02-05T16:16:15;37.43;;;17.20;;
69386;SDS011;56575;48.942;8.404;2023-02-05T16:18:45;31.23;;;15.50;;
69386;SDS011;56575;48.942;8.404;2023-02-05T16:21:22;32.75;;;15.15;;
69386;SDS011;56575;48.942;8.404;2023-02-05T16:23:50;35.67;;;15.25;;
69386;SDS011;56575;48.942;8.404;2023-02-05T16:26:25;31.40;;;14.63;;
69386;SDS011;56575;48.942;8.404;2023-02-05T16:28:53;33.17;;;14.73;;
69386;SDS011;56575;48.942;8.404;2023-02-05T16:31:20;33.13;;;15.30;;
69386;SDS011;56575;48.942;8.404;2023-02-05T16:33:52;36.10;;;15.52;;
69386;SDS011;56575;48.942;8.404;2023-02-05T16:36:22;34.10;;;15.23;;
69386;SDS011;56575;48.942;8.404;2023-02-05T16:38:49;42.25;;;17.15;;
69386;SDS011;56575;48.942;8.404;2023-02-05T16:41:18;37.50;;;15.30;;
69386;SDS011;56575;48.942;8.404;2023-02-05T16:43:44;39.95;;;16.27;;
69386;SDS011;56575;48.942;8.404;2023-02-05T16:48:38;33.43;;;15.97;;
69386;SDS011;56575;48.942;8.404;2023-02-05T16:51:31;31.60;;;14.98;;
69386;SDS011;56575;48.942;8.404;2023-02-05T16:54:00;38.47;;;15.35;;
69386;SDS011;56575;48.942;8.404;2023-02-05T16:56:28;38.13;;;16.00;;
69386;SDS011;56575;48.942;8.404;2023-02-05T16:58:57;40.60;;;15.87;;
69386;SDS011;56575;48.942;8.404;2023-02-05T17:01:23;35.55;;;15.98;;
69386;SDS011;56575;48.942;8.404;2023-02-05T17:03:51;40.17;;;17.23;;